Terminal Aerodrome Forecast
Issued by NWS Boston, MA

Home | Current Version | Previous Version | Text Only | Print | Product List | Glossary On
Versions: 1 2 3 4 5 6 7 8 9 10 11 12 13 14 15 16 17 18 19 20 21 22 23 24 25 26 27 28 29 30 31 32
000
FTUS41 KBOX 230543
TAFPVD
TAF
KPVD 230543Z 2306/2406 01019G28KT P6SM VCSH SCT006 BKN012 OVC030
     FM231500 01014G27KT 5SM -SHRA BR OVC015
     FM231900 01013G26KT P6SM OVC008
     FM240000 36014G28KT 6SM BR OVC015=

USA.gov is the U.S. government's official web portal to all federal, state and local government web resources and services.